sensor_id;sensor_type;location;lat;lon;timestamp;temperature;humidity
68215;DHT22;55036;52.138;5.236;2023-04-25T00:01:16;8.40;82.80
68215;DHT22;55036;52.138;5.236;2023-04-25T00:03:43;8.40;82.80
68215;DHT22;55036;52.138;5.236;2023-04-25T00:06:10;8.30;83.40
68215;DHT22;55036;52.138;5.236;2023-04-25T00:08:37;8.30;84.30
68215;DHT22;55036;52.138;5.236;2023-04-25T00:11:03;8.30;85.00
68215;DHT22;55036;52.138;5.236;2023-04-25T00:13:30;8.30;84.70
68215;DHT22;55036;52.138;5.236;2023-04-25T00:15:57;8.30;84.70
68215;DHT22;55036;52.138;5.236;2023-04-25T00:18:24;8.40;84.70
68215;DHT22;55036;52.138;5.236;2023-04-25T00:20:51;8.50;84.50
68215;DHT22;55036;52.138;5.236;2023-04-25T00:23:18;8.50;84.20
68215;DHT22;55036;52.138;5.236;2023-04-25T00:25:46;8.50;83.90
68215;DHT22;55036;52.138;5.236;2023-04-25T00:28:13;8.50;83.80
68215;DHT22;55036;52.138;5.236;2023-04-25T00:30:40;8.50;83.80
68215;DHT22;55036;52.138;5.236;2023-04-25T00:33:07;8.60;83.90
68215;DHT22;55036;52.138;5.236;2023-04-25T00:35:34;8.70;83.80
68215;DHT22;55036;52.138;5.236;2023-04-25T00:38:01;8.70;83.70
68215;DHT22;55036;52.138;5.236;2023-04-25T00:40:28;8.70;83.50
68215;DHT22;55036;52.138;5.236;2023-04-25T00:42:55;8.70;83.40
68215;DHT22;55036;52.138;5.236;2023-04-25T00:45:21;8.70;83.30
68215;DHT22;55036;52.138;5.236;2023-04-25T00:47:53;8.70;83.10
68215;DHT22;55036;52.138;5.236;2023-04-25T00:50:20;8.60;82.90
68215;DHT22;55036;52.138;5.236;2023-04-25T00:52:47;8.60;83.20
68215;DHT22;55036;52.138;5.236;2023-04-25T00:55:14;8.60;83.20
68215;DHT22;55036;52.138;5.236;2023-04-25T00:57:42;8.50;82.90
68215;DHT22;55036;52.138;5.236;2023-04-25T01:00:10;8.50;82.80
68215;DHT22;55036;52.138;5.236;2023-04-25T01:02:37;8.40;82.80
68215;DHT22;55036;52.138;5.236;2023-04-25T01:05:04;8.40;82.90
68215;DHT22;55036;52.138;5.236;2023-04-25T01:07:31;8.30;82.70
68215;DHT22;55036;52.138;5.236;2023-04-25T01:09:58;8.30;82.70
68215;DHT22;55036;52.138;5.236;2023-04-25T01:12:25;8.20;82.70
68215;DHT22;55036;52.138;5.236;2023-04-25T01:14:51;8.20;82.50
68215;DHT22;55036;52.138;5.236;2023-04-25T01:17:19;8.20;82.70
68215;DHT22;55036;52.138;5.236;2023-04-25T01:19:46;8.10;82.60
68215;DHT22;55036;52.138;5.236;2023-04-25T01:22:14;8.10;82.70
68215;DHT22;55036;52.138;5.236;2023-04-25T01:24:41;8.10;82.70
68215;DHT22;55036;52.138;5.236;2023-04-25T01:27:08;8.00;82.60
68215;DHT22;55036;52.138;5.236;2023-04-25T01:29:35;8.00;82.50
68215;DHT22;55036;52.138;5.236;2023-04-25T01:32:02;8.00;82.60
68215;DHT22;55036;52.138;5.236;2023-04-25T01:34:30;8.00;82.60
68215;DHT22;55036;52.138;5.236;2023-04-25T01:36:56;7.90;82.40
68215;DHT22;55036;52.138;5.236;2023-04-25T01:39:25;7.90;82.40
68215;DHT22;55036;52.138;5.236;2023-04-25T01:41:52;7.90;82.50
68215;DHT22;55036;52.138;5.236;2023-04-25T01:44:18;7.90;82.50
68215;DHT22;55036;52.138;5.236;2023-04-25T01:46:45;7.80;82.40
68215;DHT22;55036;52.138;5.236;2023-04-25T01:49:12;7.80;82.30
68215;DHT22;55036;52.138;5.236;2023-04-25T01:51:38;7.70;82.30
68215;DHT22;55036;52.138;5.236;2023-04-25T01:54:05;7.70;82.40
68215;DHT22;55036;52.138;5.236;2023-04-25T01:56:32;7.70;82.30
68215;DHT22;55036;52.138;5.236;2023-04-25T01:58:59;7.60;82.30
68215;DHT22;55036;52.138;5.236;2023-04-25T02:01:26;7.60;82.30
68215;DHT22;55036;52.138;5.236;2023-04-25T02:03:53;7.60;82.00
68215;DHT22;55036;52.138;5.236;2023-04-25T02:06:21;7.50;81.90
68215;DHT22;55036;52.138;5.236;2023-04-25T02:08:47;7.40;81.90
68215;DHT22;55036;52.138;5.236;2023-04-25T02:11:14;7.40;81.90
68215;DHT22;55036;52.138;5.236;2023-04-25T02:13:41;7.30;81.90
68215;DHT22;55036;52.138;5.236;2023-04-25T02:16:07;7.30;82.00
68215;DHT22;55036;52.138;5.236;2023-04-25T02:18:34;7.20;82.90
68215;DHT22;55036;52.138;5.236;2023-04-25T02:21:03;7.20;82.00
68215;DHT22;55036;52.138;5.236;2023-04-25T02:23:30;7.20;81.80
68215;DHT22;55036;52.138;5.236;2023-04-25T02:25:57;7.10;81.80
68215;DHT22;55036;52.138;5.236;2023-04-25T02:28:24;7.00;82.00
68215;DHT22;55036;52.138;5.236;2023-04-25T02:30:52;7.00;82.00
68215;DHT22;55036;52.138;5.236;2023-04-25T02:33:19;6.90;82.20
68215;DHT22;55036;52.138;5.236;2023-04-25T02:35:47;6.90;82.30
68215;DHT22;55036;52.138;5.236;2023-04-25T02:38:14;6.90;82.50
68215;DHT22;55036;52.138;5.236;2023-04-25T02:40:41;6.90;82.80
68215;DHT22;55036;52.138;5.236;2023-04-25T02:43:08;7.00;82.90
68215;DHT22;55036;52.138;5.236;2023-04-25T02:45:34;6.90;82.90
68215;DHT22;55036;52.138;5.236;2023-04-25T02:48:02;6.90;83.10
68215;DHT22;55036;52.138;5.236;2023-04-25T02:50:29;6.90;83.30
68215;DHT22;55036;52.138;5.236;2023-04-25T02:52:56;7.00;83.30
68215;DHT22;55036;52.138;5.236;2023-04-25T02:55:23;7.00;83.50
68215;DHT22;55036;52.138;5.236;2023-04-25T02:57:53;7.10;83.60
68215;DHT22;55036;52.138;5.236;2023-04-25T03:00:21;7.10;83.70
68215;DHT22;55036;52.138;5.236;2023-04-25T03:02:49;7.10;83.60
68215;DHT22;55036;52.138;5.236;2023-04-25T03:05:15;7.10;83.60
68215;DHT22;55036;52.138;5.236;2023-04-25T03:07:43;7.10;83.60
68215;DHT22;55036;52.138;5.236;2023-04-25T03:10:11;7.20;83.90
68215;DHT22;55036;52.138;5.236;2023-04-25T03:12:38;7.20;83.80
68215;DHT22;55036;52.138;5.236;2023-04-25T03:15:05;7.20;83.80
68215;DHT22;55036;52.138;5.236;2023-04-25T03:17:32;7.20;84.10
68215;DHT22;55036;52.138;5.236;2023-04-25T03:19:59;7.30;83.90
68215;DHT22;55036;52.138;5.236;2023-04-25T03:22:25;7.30;84.00
68215;DHT22;55036;52.138;5.236;2023-04-25T03:24:52;7.30;84.00
68215;DHT22;55036;52.138;5.236;2023-04-25T03:27:19;7.30;84.00
68215;DHT22;55036;52.138;5.236;2023-04-25T03:29:45;7.30;83.90
68215;DHT22;55036;52.138;5.236;2023-04-25T03:32:12;7.30;84.20
68215;DHT22;55036;52.138;5.236;2023-04-25T03:34:39;7.40;84.40
68215;DHT22;55036;52.138;5.236;2023-04-25T03:37:06;7.40;84.30
68215;DHT22;55036;52.138;5.236;2023-04-25T03:39:33;7.40;84.30
68215;DHT22;55036;52.138;5.236;2023-04-25T03:41:59;7.50;84.30
68215;DHT22;55036;52.138;5.236;2023-04-25T03:44:27;7.50;84.30
68215;DHT22;55036;52.138;5.236;2023-04-25T03:46:54;7.50;83.80
68215;DHT22;55036;52.138;5.236;2023-04-25T03:49:20;7.50;83.90
68215;DHT22;55036;52.138;5.236;2023-04-25T03:51:47;7.50;84.00
68215;DHT22;55036;52.138;5.236;2023-04-25T03:54:14;7.50;84.00
68215;DHT22;55036;52.138;5.236;2023-04-25T03:56:40;7.60;85.00
68215;DHT22;55036;52.138;5.236;2023-04-25T03:59:07;7.60;83.90
68215;DHT22;55036;52.138;5.236;2023-04-25T04:01:34;7.50;83.80
68215;DHT22;55036;52.138;5.236;2023-04-25T04:04:01;7.60;84.00
68215;DHT22;55036;52.138;5.236;2023-04-25T04:06:29;7.60;83.80
68215;DHT22;55036;52.138;5.236;2023-04-25T04:08:56;7.60;83.90
68215;DHT22;55036;52.138;5.236;2023-04-25T04:11:23;7.60;83.80
68215;DHT22;55036;52.138;5.236;2023-04-25T04:13:49;7.60;83.70
68215;DHT22;55036;52.138;5.236;2023-04-25T04:16:16;7.60;83.50
68215;DHT22;55036;52.138;5.236;2023-04-25T04:18:44;7.50;83.20
68215;DHT22;55036;52.138;5.236;2023-04-25T04:21:11;7.50;83.10
68215;DHT22;55036;52.138;5.236;2023-04-25T04:23:38;7.50;83.20
68215;DHT22;55036;52.138;5.236;2023-04-25T04:26:05;7.50;83.10
68215;DHT22;55036;52.138;5.236;2023-04-25T04:28:33;7.50;83.20
68215;DHT22;55036;52.138;5.236;2023-04-25T04:31:00;7.50;83.20
68215;DHT22;55036;52.138;5.236;2023-04-25T04:33:27;7.50;83.10
68215;DHT22;55036;52.138;5.236;2023-04-25T04:35:54;7.50;83.30
68215;DHT22;55036;52.138;5.236;2023-04-25T04:38:22;7.50;83.30
68215;DHT22;55036;52.138;5.236;2023-04-25T04:40:48;7.50;83.30
68215;DHT22;55036;52.138;5.236;2023-04-25T04:43:15;7.50;83.40
68215;DHT22;55036;52.138;5.236;2023-04-25T04:45:43;7.50;83.30
68215;DHT22;55036;52.138;5.236;2023-04-25T04:48:11;7.50;83.20
68215;DHT22;55036;52.138;5.236;2023-04-25T04:50:40;7.50;83.20
68215;DHT22;55036;52.138;5.236;2023-04-25T04:53:07;7.50;83.20
68215;DHT22;55036;52.138;5.236;2023-04-25T04:55:34;7.50;83.30
68215;DHT22;55036;52.138;5.236;2023-04-25T04:58:00;7.50;83.10
68215;DHT22;55036;52.138;5.236;2023-04-25T05:00:27;7.50;83.50
68215;DHT22;55036;52.138;5.236;2023-04-25T05:02:56;7.60;83.10
68215;DHT22;55036;52.138;5.236;2023-04-25T05:05:23;7.50;82.90
68215;DHT22;55036;52.138;5.236;2023-04-25T05:07:50;7.50;83.30
68215;DHT22;55036;52.138;5.236;2023-04-25T05:10:18;7.60;83.60
68215;DHT22;55036;52.138;5.236;2023-04-25T05:12:45;7.60;83.40
68215;DHT22;55036;52.138;5.236;2023-04-25T05:15:11;7.70;83.40
68215;DHT22;55036;52.138;5.236;2023-04-25T05:17:38;7.70;83.30
68215;DHT22;55036;52.138;5.236;2023-04-25T05:20:09;7.70;83.50
68215;DHT22;55036;52.138;5.236;2023-04-25T05:22:36;7.70;83.20
68215;DHT22;55036;52.138;5.236;2023-04-25T05:25:03;7.80;83.00
68215;DHT22;55036;52.138;5.236;2023-04-25T05:27:30;7.70;83.00
68215;DHT22;55036;52.138;5.236;2023-04-25T05:29:56;7.80;83.20
68215;DHT22;55036;52.138;5.236;2023-04-25T05:32:23;7.90;83.20
68215;DHT22;55036;52.138;5.236;2023-04-25T05:34:51;7.90;83.30
68215;DHT22;55036;52.138;5.236;2023-04-25T05:37:18;7.90;83.30
68215;DHT22;55036;52.138;5.236;2023-04-25T05:39:45;8.00;83.40
68215;DHT22;55036;52.138;5.236;2023-04-25T05:42:11;8.10;83.20
68215;DHT22;55036;52.138;5.236;2023-04-25T05:44:38;8.10;83.20
68215;DHT22;55036;52.138;5.236;2023-04-25T05:47:05;8.20;83.20
68215;DHT22;55036;52.138;5.236;2023-04-25T05:49:32;8.20;83.00
68215;DHT22;55036;52.138;5.236;2023-04-25T05:51:58;8.30;82.70
68215;DHT22;55036;52.138;5.236;2023-04-25T05:54:25;8.40;82.70
68215;DHT22;55036;52.138;5.236;2023-04-25T05:56:52;8.50;82.60
68215;DHT22;55036;52.138;5.236;2023-04-25T05:59:18;8.50;82.00
68215;DHT22;55036;52.138;5.236;2023-04-25T06:01:45;8.60;81.80
68215;DHT22;55036;52.138;5.236;2023-04-25T06:04:13;8.60;82.10
68215;DHT22;55036;52.138;5.236;2023-04-25T06:06:40;8.70;82.00
68215;DHT22;55036;52.138;5.236;2023-04-25T06:09:06;8.90;81.90
68215;DHT22;55036;52.138;5.236;2023-04-25T06:11:33;9.00;81.70
68215;DHT22;55036;52.138;5.236;2023-04-25T06:14:00;9.10;81.30
68215;DHT22;55036;52.138;5.236;2023-04-25T06:16:27;9.10;81.00
68215;DHT22;55036;52.138;5.236;2023-04-25T06:18:53;9.20;80.70
68215;DHT22;55036;52.138;5.236;2023-04-25T06:21:20;9.40;81.80
68215;DHT22;55036;52.138;5.236;2023-04-25T06:23:47;9.90;81.20
68215;DHT22;55036;52.138;5.236;2023-04-25T06:26:14;10.40;81.40
68215;DHT22;55036;52.138;5.236;2023-04-25T06:28:41;10.80;79.80
68215;DHT22;55036;52.138;5.236;2023-04-25T06:31:07;11.00;77.20
68215;DHT22;55036;52.138;5.236;2023-04-25T06:33:34;10.80;75.30
68215;DHT22;55036;52.138;5.236;2023-04-25T06:36:01;10.50;73.40
68215;DHT22;55036;52.138;5.236;2023-04-25T06:38:27;10.40;75.40
68215;DHT22;55036;52.138;5.236;2023-04-25T06:40:54;10.40;75.20
68215;DHT22;55036;52.138;5.236;2023-04-25T06:43:21;10.30;75.30
68215;DHT22;55036;52.138;5.236;2023-04-25T06:45:47;10.50;76.50
68215;DHT22;55036;52.138;5.236;2023-04-25T06:48:14;10.80;76.30
68215;DHT22;55036;52.138;5.236;2023-04-25T06:50:42;11.00;75.40
68215;DHT22;55036;52.138;5.236;2023-04-25T06:53:08;11.10;75.10
68215;DHT22;55036;52.138;5.236;2023-04-25T06:55:35;11.20;73.90
68215;DHT22;55036;52.138;5.236;2023-04-25T06:58:02;11.30;73.00
68215;DHT22;55036;52.138;5.236;2023-04-25T07:00:29;11.30;72.50
68215;DHT22;55036;52.138;5.236;2023-04-25T07:02:57;11.40;73.00
68215;DHT22;55036;52.138;5.236;2023-04-25T07:05:24;11.50;68.80
68215;DHT22;55036;52.138;5.236;2023-04-25T07:07:51;11.50;69.40
68215;DHT22;55036;52.138;5.236;2023-04-25T07:10:17;11.50;68.80
68215;DHT22;55036;52.138;5.236;2023-04-25T07:12:44;11.70;72.10
68215;DHT22;55036;52.138;5.236;2023-04-25T07:15:11;11.90;70.80
68215;DHT22;55036;52.138;5.236;2023-04-25T07:17:38;11.80;66.70
68215;DHT22;55036;52.138;5.236;2023-04-25T07:20:05;11.60;67.60
68215;DHT22;55036;52.138;5.236;2023-04-25T07:22:32;11.40;66.00
68215;DHT22;55036;52.138;5.236;2023-04-25T07:25:00;11.20;64.20
68215;DHT22;55036;52.138;5.236;2023-04-25T07:27:27;10.90;64.60
68215;DHT22;55036;52.138;5.236;2023-04-25T07:29:54;10.80;65.50
68215;DHT22;55036;52.138;5.236;2023-04-25T07:32:20;10.80;65.90
68215;DHT22;55036;52.138;5.236;2023-04-25T07:34:47;10.80;68.00
68215;DHT22;55036;52.138;5.236;2023-04-25T07:37:14;10.70;64.30
68215;DHT22;55036;52.138;5.236;2023-04-25T07:39:41;10.60;65.10
68215;DHT22;55036;52.138;5.236;2023-04-25T07:42:08;10.50;66.00
68215;DHT22;55036;52.138;5.236;2023-04-25T07:44:35;10.50;65.70
68215;DHT22;55036;52.138;5.236;2023-04-25T07:47:09;10.40;64.30
68215;DHT22;55036;52.138;5.236;2023-04-25T07:49:37;10.40;64.60
68215;DHT22;55036;52.138;5.236;2023-04-25T07:52:05;10.40;66.20
68215;DHT22;55036;52.138;5.236;2023-04-25T07:54:32;10.50;66.40
68215;DHT22;55036;52.138;5.236;2023-04-25T07:56:59;10.70;65.60
68215;DHT22;55036;52.138;5.236;2023-04-25T07:59:26;10.80;66.00
68215;DHT22;55036;52.138;5.236;2023-04-25T08:01:55;10.90;65.10
68215;DHT22;55036;52.138;5.236;2023-04-25T08:04:23;10.80;65.60
68215;DHT22;55036;52.138;5.236;2023-04-25T08:06:51;10.80;64.50
68215;DHT22;55036;52.138;5.236;2023-04-25T08:09:20;11.10;66.00
68215;DHT22;55036;52.138;5.236;2023-04-25T08:11:47;11.60;65.90
68215;DHT22;55036;52.138;5.236;2023-04-25T08:14:14;11.90;62.30
68215;DHT22;55036;52.138;5.236;2023-04-25T08:16:40;12.00;63.70
68215;DHT22;55036;52.138;5.236;2023-04-25T08:19:09;12.00;58.30
68215;DHT22;55036;52.138;5.236;2023-04-25T08:21:35;11.40;58.60
68215;DHT22;55036;52.138;5.236;2023-04-25T08:24:02;11.10;61.40
68215;DHT22;55036;52.138;5.236;2023-04-25T08:26:29;11.00;62.10
68215;DHT22;55036;52.138;5.236;2023-04-25T08:28:55;10.90;63.00
68215;DHT22;55036;52.138;5.236;2023-04-25T08:31:22;10.80;61.90
68215;DHT22;55036;52.138;5.236;2023-04-25T08:33:49;10.70;61.20
68215;DHT22;55036;52.138;5.236;2023-04-25T08:36:18;10.60;61.00
68215;DHT22;55036;52.138;5.236;2023-04-25T08:39:03;10.40;61.40
68215;DHT22;55036;52.138;5.236;2023-04-25T08:41:30;10.40;62.50
68215;DHT22;55036;52.138;5.236;2023-04-25T08:43:58;10.40;62.20
68215;DHT22;55036;52.138;5.236;2023-04-25T08:46:27;10.60;62.10
68215;DHT22;55036;52.138;5.236;2023-04-25T08:49:00;10.50;62.40
68215;DHT22;55036;52.138;5.236;2023-04-25T08:51:31;10.50;62.80
68215;DHT22;55036;52.138;5.236;2023-04-25T08:54:10;10.60;62.80
68215;DHT22;55036;52.138;5.236;2023-04-25T08:56:57;10.80;64.20
68215;DHT22;55036;52.138;5.236;2023-04-25T08:59:28;11.50;65.30
68215;DHT22;55036;52.138;5.236;2023-04-25T09:01:56;12.00;64.60
68215;DHT22;55036;52.138;5.236;2023-04-25T09:04:23;11.80;58.70
68215;DHT22;55036;52.138;5.236;2023-04-25T09:06:49;11.60;59.60
68215;DHT22;55036;52.138;5.236;2023-04-25T09:09:16;11.20;58.60
68215;DHT22;55036;52.138;5.236;2023-04-25T09:11:43;10.90;58.50
68215;DHT22;55036;52.138;5.236;2023-04-25T09:19:26;12.10;59.20
68215;DHT22;55036;52.138;5.236;2023-04-25T09:21:57;12.50;59.10
68215;DHT22;55036;52.138;5.236;2023-04-25T09:27:09;12.50;54.00
68215;DHT22;55036;52.138;5.236;2023-04-25T09:29:40;12.30;53.90
68215;DHT22;55036;52.138;5.236;2023-04-25T09:32:15;12.10;54.90
68215;DHT22;55036;52.138;5.236;2023-04-25T09:34:44;12.10;55.30
68215;DHT22;55036;52.138;5.236;2023-04-25T09:37:11;12.10;56.80
68215;DHT22;55036;52.138;5.236;2023-04-25T09:39:38;11.90;56.20
68215;DHT22;55036;52.138;5.236;2023-04-25T09:42:06;11.70;55.40
68215;DHT22;55036;52.138;5.236;2023-04-25T09:44:32;11.40;56.80
68215;DHT22;55036;52.138;5.236;2023-04-25T09:46:59;11.20;57.40
68215;DHT22;55036;52.138;5.236;2023-04-25T09:49:27;11.00;59.00
68215;DHT22;55036;52.138;5.236;2023-04-25T09:51:57;11.00;59.80
68215;DHT22;55036;52.138;5.236;2023-04-25T09:54:25;11.20;62.10
68215;DHT22;55036;52.138;5.236;2023-04-25T09:56:53;11.90;60.80
68215;DHT22;55036;52.138;5.236;2023-04-25T09:59:21;12.20;59.50
68215;DHT22;55036;52.138;5.236;2023-04-25T10:01:49;12.30;59.10
68215;DHT22;55036;52.138;5.236;2023-04-25T10:04:21;12.10;58.10
68215;DHT22;55036;52.138;5.236;2023-04-25T10:06:49;12.00;57.60
68215;DHT22;55036;52.138;5.236;2023-04-25T10:09:20;12.10;58.80
68215;DHT22;55036;52.138;5.236;2023-04-25T10:11:47;12.10;55.50
68215;DHT22;55036;52.138;5.236;2023-04-25T10:14:14;12.00;56.60
68215;DHT22;55036;52.138;5.236;2023-04-25T10:16:42;12.10;58.70
68215;DHT22;55036;52.138;5.236;2023-04-25T10:19:10;12.00;58.00
68215;DHT22;55036;52.138;5.236;2023-04-25T10:21:51;12.10;58.70
68215;DHT22;55036;52.138;5.236;2023-04-25T10:24:20;12.00;56.40
68215;DHT22;55036;52.138;5.236;2023-04-25T10:26:47;12.00;57.40
68215;DHT22;55036;52.138;5.236;2023-04-25T10:29:22;12.20;57.20
68215;DHT22;55036;52.138;5.236;2023-04-25T10:31:50;12.50;54.10
68215;DHT22;55036;52.138;5.236;2023-04-25T10:34:17;12.60;54.50
68215;DHT22;55036;52.138;5.236;2023-04-25T10:36:50;12.80;53.70
68215;DHT22;55036;52.138;5.236;2023-04-25T10:39:25;12.80;53.60
68215;DHT22;55036;52.138;5.236;2023-04-25T10:41:58;12.80;52.70
68215;DHT22;55036;52.138;5.236;2023-04-25T10:44:29;12.80;51.70
68215;DHT22;55036;52.138;5.236;2023-04-25T10:46:59;12.60;51.30
68215;DHT22;55036;52.138;5.236;2023-04-25T10:54:53;12.90;52.90
68215;DHT22;55036;52.138;5.236;2023-04-25T10:57:41;13.10;52.20
68215;DHT22;55036;52.138;5.236;2023-04-25T11:00:19;13.50;52.10
68215;DHT22;55036;52.138;5.236;2023-04-25T11:02:58;13.60;48.20
68215;DHT22;55036;52.138;5.236;2023-04-25T11:05:29;12.90;50.00
68215;DHT22;55036;52.138;5.236;2023-04-25T11:08:00;12.30;51.40
68215;DHT22;55036;52.138;5.236;2023-04-25T11:10:34;12.00;52.50
68215;DHT22;55036;52.138;5.236;2023-04-25T11:13:04;11.80;53.60
68215;DHT22;55036;52.138;5.236;2023-04-25T11:15:31;11.60;53.70
68215;DHT22;55036;52.138;5.236;2023-04-25T11:17:58;11.70;52.60
68215;DHT22;55036;52.138;5.236;2023-04-25T11:20:25;11.60;52.80
68215;DHT22;55036;52.138;5.236;2023-04-25T11:22:57;11.50;54.40
68215;DHT22;55036;52.138;5.236;2023-04-25T11:25:25;11.50;53.00
68215;DHT22;55036;52.138;5.236;2023-04-25T11:27:58;11.40;53.70
68215;DHT22;55036;52.138;5.236;2023-04-25T11:30:26;11.60;53.70
68215;DHT22;55036;52.138;5.236;2023-04-25T11:32:53;12.00;53.30
68215;DHT22;55036;52.138;5.236;2023-04-25T11:35:20;12.20;52.60
68215;DHT22;55036;52.138;5.236;2023-04-25T11:37:49;12.60;53.40
68215;DHT22;55036;52.138;5.236;2023-04-25T11:40:16;13.00;52.50
68215;DHT22;55036;52.138;5.236;2023-04-25T11:42:45;13.20;48.60
68215;DHT22;55036;52.138;5.236;2023-04-25T11:45:13;13.20;49.20
68215;DHT22;55036;52.138;5.236;2023-04-25T11:47:40;13.40;50.00
68215;DHT22;55036;52.138;5.236;2023-04-25T11:50:08;13.70;49.10
68215;DHT22;55036;52.138;5.236;2023-04-25T11:52:45;13.80;51.00
68215;DHT22;55036;52.138;5.236;2023-04-25T11:55:19;13.30;50.10
68215;DHT22;55036;52.138;5.236;2023-04-25T11:57:48;13.00;53.00
68215;DHT22;55036;52.138;5.236;2023-04-25T12:00:19;12.80;52.20
68215;DHT22;55036;52.138;5.236;2023-04-25T12:02:50;12.40;51.40
68215;DHT22;55036;52.138;5.236;2023-04-25T12:05:17;11.90;51.30
68215;DHT22;55036;52.138;5.236;2023-04-25T12:08:09;11.60;53.30
68215;DHT22;55036;52.138;5.236;2023-04-25T12:10:38;11.40;53.70
68215;DHT22;55036;52.138;5.236;2023-04-25T12:13:23;11.40;55.40
68215;DHT22;55036;52.138;5.236;2023-04-25T12:15:51;11.50;54.60
68215;DHT22;55036;52.138;5.236;2023-04-25T12:18:23;11.50;54.20
68215;DHT22;55036;52.138;5.236;2023-04-25T12:20:52;11.30;51.80
68215;DHT22;55036;52.138;5.236;2023-04-25T12:23:25;11.20;53.70
68215;DHT22;55036;52.138;5.236;2023-04-25T12:25:53;11.30;55.30
68215;DHT22;55036;52.138;5.236;2023-04-25T12:28:22;11.40;53.10
68215;DHT22;55036;52.138;5.236;2023-04-25T12:30:54;11.30;52.90
68215;DHT22;55036;52.138;5.236;2023-04-25T12:33:25;11.30;54.30
68215;DHT22;55036;52.138;5.236;2023-04-25T12:35:54;11.50;53.70
68215;DHT22;55036;52.138;5.236;2023-04-25T12:38:25;11.60;52.50
68215;DHT22;55036;52.138;5.236;2023-04-25T12:40:53;11.70;53.30
68215;DHT22;55036;52.138;5.236;2023-04-25T12:43:20;12.00;53.20
68215;DHT22;55036;52.138;5.236;2023-04-25T12:45:52;12.10;52.00
68215;DHT22;55036;52.138;5.236;2023-04-25T12:48:19;12.10;50.70
68215;DHT22;55036;52.138;5.236;2023-04-25T12:50:47;12.30;52.00
68215;DHT22;55036;52.138;5.236;2023-04-25T12:53:19;12.80;50.20
68215;DHT22;55036;52.138;5.236;2023-04-25T12:55:46;13.10;47.80
68215;DHT22;55036;52.138;5.236;2023-04-25T12:58:14;13.20;46.80
68215;DHT22;55036;52.138;5.236;2023-04-25T13:00:41;12.80;47.60
68215;DHT22;55036;52.138;5.236;2023-04-25T13:03:09;12.60;48.70
68215;DHT22;55036;52.138;5.236;2023-04-25T13:05:37;12.70;50.30
68215;DHT22;55036;52.138;5.236;2023-04-25T13:08:04;12.60;48.20
68215;DHT22;55036;52.138;5.236;2023-04-25T13:10:31;12.40;49.10
68215;DHT22;55036;52.138;5.236;2023-04-25T13:13:00;12.60;50.60
68215;DHT22;55036;52.138;5.236;2023-04-25T13:15:27;12.70;49.60
68215;DHT22;55036;52.138;5.236;2023-04-25T13:17:54;12.60;50.10
68215;DHT22;55036;52.138;5.236;2023-04-25T13:20:21;12.40;49.90
68215;DHT22;55036;52.138;5.236;2023-04-25T13:22:48;12.00;48.20
68215;DHT22;55036;52.138;5.236;2023-04-25T13:25:15;12.00;48.50
68215;DHT22;55036;52.138;5.236;2023-04-25T13:27:43;12.30;48.80
68215;DHT22;55036;52.138;5.236;2023-04-25T13:30:10;12.60;47.70
68215;DHT22;55036;52.138;5.236;2023-04-25T13:32:37;12.80;47.10
68215;DHT22;55036;52.138;5.236;2023-04-25T13:35:06;13.20;47.80
68215;DHT22;55036;52.138;5.236;2023-04-25T13:37:36;13.60;44.80
68215;DHT22;55036;52.138;5.236;2023-04-25T13:40:07;13.60;45.50
68215;DHT22;55036;52.138;5.236;2023-04-25T13:42:36;13.40;44.20
68215;DHT22;55036;52.138;5.236;2023-04-25T13:45:03;13.10;45.50
68215;DHT22;55036;52.138;5.236;2023-04-25T13:47:30;12.90;45.50
68215;DHT22;55036;52.138;5.236;2023-04-25T13:49:57;12.60;47.10
68215;DHT22;55036;52.138;5.236;2023-04-25T13:52:24;12.50;45.60
68215;DHT22;55036;52.138;5.236;2023-04-25T13:54:50;12.40;47.10
68215;DHT22;55036;52.138;5.236;2023-04-25T13:57:18;12.60;46.60
68215;DHT22;55036;52.138;5.236;2023-04-25T13:59:44;12.50;45.90
68215;DHT22;55036;52.138;5.236;2023-04-25T14:02:12;12.20;44.90
68215;DHT22;55036;52.138;5.236;2023-04-25T14:04:40;12.10;46.30
68215;DHT22;55036;52.138;5.236;2023-04-25T14:07:06;12.40;47.50
68215;DHT22;55036;52.138;5.236;2023-04-25T14:09:33;12.30;45.90
68215;DHT22;55036;52.138;5.236;2023-04-25T14:12:00;12.40;46.90
68215;DHT22;55036;52.138;5.236;2023-04-25T14:14:28;12.40;47.60
68215;DHT22;55036;52.138;5.236;2023-04-25T14:16:55;12.20;47.80
68215;DHT22;55036;52.138;5.236;2023-04-25T14:19:23;12.10;47.90
68215;DHT22;55036;52.138;5.236;2023-04-25T14:21:50;12.00;48.20
68215;DHT22;55036;52.138;5.236;2023-04-25T14:24:17;11.90;49.80
68215;DHT22;55036;52.138;5.236;2023-04-25T14:26:44;12.00;49.60
68215;DHT22;55036;52.138;5.236;2023-04-25T14:29:11;12.00;49.20
68215;DHT22;55036;52.138;5.236;2023-04-25T14:31:39;12.00;49.70
68215;DHT22;55036;52.138;5.236;2023-04-25T14:34:07;11.80;48.80
68215;DHT22;55036;52.138;5.236;2023-04-25T14:36:35;11.80;50.60
68215;DHT22;55036;52.138;5.236;2023-04-25T14:39:02;12.10;50.60
68215;DHT22;55036;52.138;5.236;2023-04-25T14:41:29;12.30;50.70
68215;DHT22;55036;52.138;5.236;2023-04-25T14:43:56;12.60;50.40
68215;DHT22;55036;52.138;5.236;2023-04-25T14:46:23;12.80;50.00
68215;DHT22;55036;52.138;5.236;2023-04-25T14:48:50;13.10;49.10
68215;DHT22;55036;52.138;5.236;2023-04-25T14:51:17;13.30;47.90
68215;DHT22;55036;52.138;5.236;2023-04-25T14:53:44;13.30;47.10
68215;DHT22;55036;52.138;5.236;2023-04-25T14:56:10;13.30;46.40
68215;DHT22;55036;52.138;5.236;2023-04-25T14:58:39;13.40;45.70
68215;DHT22;55036;52.138;5.236;2023-04-25T15:01:06;13.30;43.70
68215;DHT22;55036;52.138;5.236;2023-04-25T15:03:34;13.00;44.00
68215;DHT22;55036;52.138;5.236;2023-04-25T15:06:01;12.80;44.40
68215;DHT22;55036;52.138;5.236;2023-04-25T15:08:28;12.40;43.70
68215;DHT22;55036;52.138;5.236;2023-04-25T15:10:55;12.10;44.80
68215;DHT22;55036;52.138;5.236;2023-04-25T15:13:22;11.90;45.40
68215;DHT22;55036;52.138;5.236;2023-04-25T15:15:49;11.80;46.50
68215;DHT22;55036;52.138;5.236;2023-04-25T15:18:19;11.90;48.00
68215;DHT22;55036;52.138;5.236;2023-04-25T15:20:52;12.00;49.70
68215;DHT22;55036;52.138;5.236;2023-04-25T15:23:19;12.00;49.80
68215;DHT22;55036;52.138;5.236;2023-04-25T15:25:47;12.00;49.30
68215;DHT22;55036;52.138;5.236;2023-04-25T15:28:13;12.00;49.60
68215;DHT22;55036;52.138;5.236;2023-04-25T15:30:43;11.90;49.70
68215;DHT22;55036;52.138;5.236;2023-04-25T15:33:09;11.70;49.00
68215;DHT22;55036;52.138;5.236;2023-04-25T15:35:36;11.70;48.90
68215;DHT22;55036;52.138;5.236;2023-04-25T15:38:03;11.70;48.50
68215;DHT22;55036;52.138;5.236;2023-04-25T15:40:30;11.80;49.10
68215;DHT22;55036;52.138;5.236;2023-04-25T15:42:57;11.90;47.80
68215;DHT22;55036;52.138;5.236;2023-04-25T15:45:25;11.90;47.90
68215;DHT22;55036;52.138;5.236;2023-04-25T15:47:55;12.00;48.80
68215;DHT22;55036;52.138;5.236;2023-04-25T15:50:23;12.30;48.80
68215;DHT22;55036;52.138;5.236;2023-04-25T15:52:50;12.20;49.00
68215;DHT22;55036;52.138;5.236;2023-04-25T15:55:18;12.00;50.10